sensor_id;sensor_type;location;lat;lon;timestamp;temperature;humidity
80218;DHT22;70450;37.974;23.708;2024-02-26T00:00:18;11.40;72.50
80218;DHT22;70450;37.974;23.708;2024-02-26T00:02:45;11.50;72.10
80218;DHT22;70450;37.974;23.708;2024-02-26T00:05:11;11.50;72.00
80218;DHT22;70450;37.974;23.708;2024-02-26T00:07:37;11.40;72.50
80218;DHT22;70450;37.974;23.708;2024-02-26T00:10:05;11.50;72.10
80218;DHT22;70450;37.974;23.708;2024-02-26T00:12:31;11.50;72.10
80218;DHT22;70450;37.974;23.708;2024-02-26T00:14:57;11.40;72.00
80218;DHT22;70450;37.974;23.708;2024-02-26T00:17:24;11.30;72.00
80218;DHT22;70450;37.974;23.708;2024-02-26T00:19:50;11.50;71.70
80218;DHT22;70450;37.974;23.708;2024-02-26T00:22:16;11.60;71.20
80218;DHT22;70450;37.974;23.708;2024-02-26T00:24:43;11.40;71.90
80218;DHT22;70450;37.974;23.708;2024-02-26T00:27:09;11.30;72.30
80218;DHT22;70450;37.974;23.708;2024-02-26T00:29:35;11.40;72.30
80218;DHT22;70450;37.974;23.708;2024-02-26T00:32:01;11.70;70.90
80218;DHT22;70450;37.974;23.708;2024-02-26T00:34:30;12.00;69.70
80218;DHT22;70450;37.974;23.708;2024-02-26T00:36:57;11.60;71.50
80218;DHT22;70450;37.974;23.708;2024-02-26T00:39:23;11.30;72.10
80218;DHT22;70450;37.974;23.708;2024-02-26T00:41:49;11.50;71.50
80218;DHT22;70450;37.974;23.708;2024-02-26T00:44:17;11.70;70.70
80218;DHT22;70450;37.974;23.708;2024-02-26T00:46:43;11.30;71.60
80218;DHT22;70450;37.974;23.708;2024-02-26T00:49:10;11.50;72.00
80218;DHT22;70450;37.974;23.708;2024-02-26T00:51:36;12.00;69.50
80218;DHT22;70450;37.974;23.708;2024-02-26T00:54:02;11.60;70.30
80218;DHT22;70450;37.974;23.708;2024-02-26T00:56:28;11.60;70.70
80218;DHT22;70450;37.974;23.708;2024-02-26T00:58:55;11.60;71.30
80218;DHT22;70450;37.974;23.708;2024-02-26T01:01:21;11.30;72.50
80218;DHT22;70450;37.974;23.708;2024-02-26T01:03:47;11.10;73.90
80218;DHT22;70450;37.974;23.708;2024-02-26T01:06:13;11.30;73.30
80218;DHT22;70450;37.974;23.708;2024-02-26T01:08:39;11.70;71.80
80218;DHT22;70450;37.974;23.708;2024-02-26T01:11:08;11.50;72.20
80218;DHT22;70450;37.974;23.708;2024-02-26T01:13:34;11.50;72.50
80218;DHT22;70450;37.974;23.708;2024-02-26T01:16:00;11.90;70.80
80218;DHT22;70450;37.974;23.708;2024-02-26T01:18:27;11.90;70.40
80218;DHT22;70450;37.974;23.708;2024-02-26T01:20:53;12.00;70.10
80218;DHT22;70450;37.974;23.708;2024-02-26T01:23:20;12.00;70.70
80218;DHT22;70450;37.974;23.708;2024-02-26T01:25:46;12.20;70.00
80218;DHT22;70450;37.974;23.708;2024-02-26T01:28:13;12.20;69.70
80218;DHT22;70450;37.974;23.708;2024-02-26T01:30:39;12.20;69.60
80218;DHT22;70450;37.974;23.708;2024-02-26T01:33:05;12.10;70.00
80218;DHT22;70450;37.974;23.708;2024-02-26T01:35:31;12.10;70.30
80218;DHT22;70450;37.974;23.708;2024-02-26T01:37:57;12.30;69.70
80218;DHT22;70450;37.974;23.708;2024-02-26T01:40:27;12.10;70.10
80218;DHT22;70450;37.974;23.708;2024-02-26T01:42:53;12.20;69.80
80218;DHT22;70450;37.974;23.708;2024-02-26T01:45:21;12.30;68.70
80218;DHT22;70450;37.974;23.708;2024-02-26T01:47:51;12.50;69.10
80218;DHT22;70450;37.974;23.708;2024-02-26T01:50:18;12.40;68.40
80218;DHT22;70450;37.974;23.708;2024-02-26T01:52:49;12.10;69.70
80218;DHT22;70450;37.974;23.708;2024-02-26T01:55:18;12.10;69.90
80218;DHT22;70450;37.974;23.708;2024-02-26T01:57:46;11.90;70.30
80218;DHT22;70450;37.974;23.708;2024-02-26T02:00:14;11.80;70.80
80218;DHT22;70450;37.974;23.708;2024-02-26T02:02:42;11.80;70.40
80218;DHT22;70450;37.974;23.708;2024-02-26T02:05:11;11.80;70.30
80218;DHT22;70450;37.974;23.708;2024-02-26T02:07:38;11.70;70.30
80218;DHT22;70450;37.974;23.708;2024-02-26T02:10:05;11.20;71.80
80218;DHT22;70450;37.974;23.708;2024-02-26T02:12:32;11.00;72.80
80218;DHT22;70450;37.974;23.708;2024-02-26T02:15:00;11.10;72.70
80218;DHT22;70450;37.974;23.708;2024-02-26T02:17:27;10.90;73.30
80218;DHT22;70450;37.974;23.708;2024-02-26T02:19:54;11.00;74.00
80218;DHT22;70450;37.974;23.708;2024-02-26T02:22:20;10.90;73.20
80218;DHT22;70450;37.974;23.708;2024-02-26T02:24:46;10.80;73.90
80218;DHT22;70450;37.974;23.708;2024-02-26T02:27:12;10.70;74.40
80218;DHT22;70450;37.974;23.708;2024-02-26T02:29:39;10.80;74.20
80218;DHT22;70450;37.974;23.708;2024-02-26T02:32:05;10.90;73.70
80218;DHT22;70450;37.974;23.708;2024-02-26T02:34:32;11.10;72.90
80218;DHT22;70450;37.974;23.708;2024-02-26T02:37:00;10.90;73.40
80218;DHT22;70450;37.974;23.708;2024-02-26T02:39:26;10.60;74.40
80218;DHT22;70450;37.974;23.708;2024-02-26T02:41:52;10.50;75.20
80218;DHT22;70450;37.974;23.708;2024-02-26T02:44:18;10.70;74.40
80218;DHT22;70450;37.974;23.708;2024-02-26T02:46:44;10.90;73.70
80218;DHT22;70450;37.974;23.708;2024-02-26T02:49:11;11.00;73.20
80218;DHT22;70450;37.974;23.708;2024-02-26T02:51:37;11.10;72.80
80218;DHT22;70450;37.974;23.708;2024-02-26T02:54:03;11.20;72.40
80218;DHT22;70450;37.974;23.708;2024-02-26T02:56:30;11.30;71.90
80218;DHT22;70450;37.974;23.708;2024-02-26T02:58:56;11.40;71.50
80218;DHT22;70450;37.974;23.708;2024-02-26T03:01:22;11.40;71.40
80218;DHT22;70450;37.974;23.708;2024-02-26T03:03:48;11.40;71.30
80218;DHT22;70450;37.974;23.708;2024-02-26T03:06:14;11.50;71.30
80218;DHT22;70450;37.974;23.708;2024-02-26T03:08:41;11.40;71.20
80218;DHT22;70450;37.974;23.708;2024-02-26T03:11:13;11.40;71.20
80218;DHT22;70450;37.974;23.708;2024-02-26T03:13:40;11.30;71.40
80218;DHT22;70450;37.974;23.708;2024-02-26T03:16:06;11.30;71.50
80218;DHT22;70450;37.974;23.708;2024-02-26T03:18:32;11.00;72.50
80218;DHT22;70450;37.974;23.708;2024-02-26T03:20:58;10.70;73.80
80218;DHT22;70450;37.974;23.708;2024-02-26T03:23:24;10.80;73.40
80218;DHT22;70450;37.974;23.708;2024-02-26T03:25:51;11.00;72.90
80218;DHT22;70450;37.974;23.708;2024-02-26T03:28:17;11.00;72.60
80218;DHT22;70450;37.974;23.708;2024-02-26T03:30:43;11.00;72.70
80218;DHT22;70450;37.974;23.708;2024-02-26T03:33:09;11.00;72.80
80218;DHT22;70450;37.974;23.708;2024-02-26T03:35:36;11.00;72.70
80218;DHT22;70450;37.974;23.708;2024-02-26T03:38:02;11.00;72.50
80218;DHT22;70450;37.974;23.708;2024-02-26T03:40:28;11.10;72.50
80218;DHT22;70450;37.974;23.708;2024-02-26T03:42:54;11.30;72.50
80218;DHT22;70450;37.974;23.708;2024-02-26T03:45:25;11.40;72.10
80218;DHT22;70450;37.974;23.708;2024-02-26T03:47:52;11.40;71.70
80218;DHT22;70450;37.974;23.708;2024-02-26T03:50:18;11.40;71.70
80218;DHT22;70450;37.974;23.708;2024-02-26T03:52:44;11.50;71.70
80218;DHT22;70450;37.974;23.708;2024-02-26T03:55:10;11.50;71.70
80218;DHT22;70450;37.974;23.708;2024-02-26T03:57:39;11.50;71.40
80218;DHT22;70450;37.974;23.708;2024-02-26T04:00:06;11.60;71.30
80218;DHT22;70450;37.974;23.708;2024-02-26T04:02:32;11.60;71.30
80218;DHT22;70450;37.974;23.708;2024-02-26T04:04:58;11.60;71.20
80218;DHT22;70450;37.974;23.708;2024-02-26T04:07:25;11.60;71.00
80218;DHT22;70450;37.974;23.708;2024-02-26T04:09:51;11.70;70.80
80218;DHT22;70450;37.974;23.708;2024-02-26T04:12:17;11.70;70.60
80218;DHT22;70450;37.974;23.708;2024-02-26T04:14:44;11.70;70.40
80218;DHT22;70450;37.974;23.708;2024-02-26T04:17:10;11.70;70.60
80218;DHT22;70450;37.974;23.708;2024-02-26T04:19:37;11.70;70.50
80218;DHT22;70450;37.974;23.708;2024-02-26T04:22:03;11.80;70.40
80218;DHT22;70450;37.974;23.708;2024-02-26T04:24:29;11.80;70.20
80218;DHT22;70450;37.974;23.708;2024-02-26T04:26:55;11.80;70.00
80218;DHT22;70450;37.974;23.708;2024-02-26T04:29:22;11.80;70.00
80218;DHT22;70450;37.974;23.708;2024-02-26T04:31:48;11.80;69.60
80218;DHT22;70450;37.974;23.708;2024-02-26T04:34:14;11.80;69.20
80218;DHT22;70450;37.974;23.708;2024-02-26T04:36:40;11.90;68.50
80218;DHT22;70450;37.974;23.708;2024-02-26T04:39:06;12.00;67.80
80218;DHT22;70450;37.974;23.708;2024-02-26T04:41:35;12.00;67.30
80218;DHT22;70450;37.974;23.708;2024-02-26T04:44:01;12.00;67.00
80218;DHT22;70450;37.974;23.708;2024-02-26T04:46:28;12.00;66.80
80218;DHT22;70450;37.974;23.708;2024-02-26T04:48:54;12.00;66.90
80218;DHT22;70450;37.974;23.708;2024-02-26T04:51:20;11.90;66.80
80218;DHT22;70450;37.974;23.708;2024-02-26T04:53:46;11.90;66.80
80218;DHT22;70450;37.974;23.708;2024-02-26T04:56:12;11.80;66.90
80218;DHT22;70450;37.974;23.708;2024-02-26T04:58:39;11.80;67.10
80218;DHT22;70450;37.974;23.708;2024-02-26T05:01:05;11.80;68.20
80218;DHT22;70450;37.974;23.708;2024-02-26T05:03:32;11.80;67.00
80218;DHT22;70450;37.974;23.708;2024-02-26T05:06:01;11.80;66.90
80218;DHT22;70450;37.974;23.708;2024-02-26T05:08:27;11.80;66.90
80218;DHT22;70450;37.974;23.708;2024-02-26T05:10:54;11.70;67.10
80218;DHT22;70450;37.974;23.708;2024-02-26T05:13:20;11.70;67.30
80218;DHT22;70450;37.974;23.708;2024-02-26T05:15:46;11.80;67.30
80218;DHT22;70450;37.974;23.708;2024-02-26T05:18:15;11.80;67.20
80218;DHT22;70450;37.974;23.708;2024-02-26T05:20:41;11.80;67.00
80218;DHT22;70450;37.974;23.708;2024-02-26T05:23:07;11.80;66.80
80218;DHT22;70450;37.974;23.708;2024-02-26T05:25:34;11.90;66.60
80218;DHT22;70450;37.974;23.708;2024-02-26T05:28:02;11.80;66.70
80218;DHT22;70450;37.974;23.708;2024-02-26T05:30:31;11.80;67.10
80218;DHT22;70450;37.974;23.708;2024-02-26T05:32:57;11.80;67.30
80218;DHT22;70450;37.974;23.708;2024-02-26T05:35:23;11.80;67.00
80218;DHT22;70450;37.974;23.708;2024-02-26T05:37:49;11.90;67.00
80218;DHT22;70450;37.974;23.708;2024-02-26T05:40:15;11.90;66.90
80218;DHT22;70450;37.974;23.708;2024-02-26T05:42:42;11.90;66.80
80218;DHT22;70450;37.974;23.708;2024-02-26T05:45:11;11.90;66.90
80218;DHT22;70450;37.974;23.708;2024-02-26T05:47:37;11.80;67.10
80218;DHT22;70450;37.974;23.708;2024-02-26T05:50:11;11.90;67.20
80218;DHT22;70450;37.974;23.708;2024-02-26T05:52:40;11.90;67.30
80218;DHT22;70450;37.974;23.708;2024-02-26T05:55:07;11.80;67.20
80218;DHT22;70450;37.974;23.708;2024-02-26T05:57:34;11.90;67.30
80218;DHT22;70450;37.974;23.708;2024-02-26T06:00:01;11.90;67.10
80218;DHT22;70450;37.974;23.708;2024-02-26T06:02:30;11.90;67.00
80218;DHT22;70450;37.974;23.708;2024-02-26T06:04:57;11.90;67.00
80218;DHT22;70450;37.974;23.708;2024-02-26T06:07:23;12.00;66.90
80218;DHT22;70450;37.974;23.708;2024-02-26T06:09:50;12.10;66.80
80218;DHT22;70450;37.974;23.708;2024-02-26T06:12:16;12.10;66.60
80218;DHT22;70450;37.974;23.708;2024-02-26T06:14:43;12.20;66.50
80218;DHT22;70450;37.974;23.708;2024-02-26T06:17:09;12.30;66.20
80218;DHT22;70450;37.974;23.708;2024-02-26T06:19:35;12.30;66.00
80218;DHT22;70450;37.974;23.708;2024-02-26T06:22:01;12.40;65.80
80218;DHT22;70450;37.974;23.708;2024-02-26T06:24:28;12.40;65.60
80218;DHT22;70450;37.974;23.708;2024-02-26T06:26:54;12.40;65.60
80218;DHT22;70450;37.974;23.708;2024-02-26T06:29:20;12.50;65.50
80218;DHT22;70450;37.974;23.708;2024-02-26T06:31:46;12.60;65.20
80218;DHT22;70450;37.974;23.708;2024-02-26T06:34:14;12.70;64.90
80218;DHT22;70450;37.974;23.708;2024-02-26T06:36:40;12.70;64.90
80218;DHT22;70450;37.974;23.708;2024-02-26T06:39:06;12.80;64.60
80218;DHT22;70450;37.974;23.708;2024-02-26T06:41:34;12.90;64.30
80218;DHT22;70450;37.974;23.708;2024-02-26T06:44:00;13.00;63.90
80218;DHT22;70450;37.974;23.708;2024-02-26T06:46:26;13.00;63.70
80218;DHT22;70450;37.974;23.708;2024-02-26T06:48:54;13.00;64.00
80218;DHT22;70450;37.974;23.708;2024-02-26T06:51:20;13.10;63.90
80218;DHT22;70450;37.974;23.708;2024-02-26T06:53:47;13.10;63.70
80218;DHT22;70450;37.974;23.708;2024-02-26T06:56:13;13.20;63.50
80218;DHT22;70450;37.974;23.708;2024-02-26T06:58:39;13.20;63.40
80218;DHT22;70450;37.974;23.708;2024-02-26T07:01:06;13.30;63.40
80218;DHT22;70450;37.974;23.708;2024-02-26T07:03:34;13.40;63.00
80218;DHT22;70450;37.974;23.708;2024-02-26T07:06:00;13.40;62.80
80218;DHT22;70450;37.974;23.708;2024-02-26T07:08:26;13.40;62.60
80218;DHT22;70450;37.974;23.708;2024-02-26T07:10:52;13.50;62.70
80218;DHT22;70450;37.974;23.708;2024-02-26T07:13:19;13.60;62.60
80218;DHT22;70450;37.974;23.708;2024-02-26T07:15:45;13.60;62.40
80218;DHT22;70450;37.974;23.708;2024-02-26T07:18:11;13.70;62.30
80218;DHT22;70450;37.974;23.708;2024-02-26T07:20:37;13.80;62.30
80218;DHT22;70450;37.974;23.708;2024-02-26T07:23:04;13.80;62.90
80218;DHT22;70450;37.974;23.708;2024-02-26T07:25:30;13.90;61.70
80218;DHT22;70450;37.974;23.708;2024-02-26T07:27:56;14.00;61.10
80218;DHT22;70450;37.974;23.708;2024-02-26T07:30:24;14.00;61.00
80218;DHT22;70450;37.974;23.708;2024-02-26T07:32:50;14.10;61.10
80218;DHT22;70450;37.974;23.708;2024-02-26T07:35:17;14.10;60.90
80218;DHT22;70450;37.974;23.708;2024-02-26T07:37:48;14.10;60.90
80218;DHT22;70450;37.974;23.708;2024-02-26T07:40:15;14.20;60.50
80218;DHT22;70450;37.974;23.708;2024-02-26T07:42:44;14.30;60.30
80218;DHT22;70450;37.974;23.708;2024-02-26T07:45:11;14.30;60.10
80218;DHT22;70450;37.974;23.708;2024-02-26T07:47:37;14.40;59.80
80218;DHT22;70450;37.974;23.708;2024-02-26T07:50:07;14.50;59.70
80218;DHT22;70450;37.974;23.708;2024-02-26T07:52:34;14.50;59.40
80218;DHT22;70450;37.974;23.708;2024-02-26T07:55:00;14.60;59.50
80218;DHT22;70450;37.974;23.708;2024-02-26T07:57:26;14.60;59.20
80218;DHT22;70450;37.974;23.708;2024-02-26T07:59:55;14.80;58.90
80218;DHT22;70450;37.974;23.708;2024-02-26T08:02:21;14.90;58.30
80218;DHT22;70450;37.974;23.708;2024-02-26T08:04:48;15.00;58.10
80218;DHT22;70450;37.974;23.708;2024-02-26T08:07:14;15.10;58.00
80218;DHT22;70450;37.974;23.708;2024-02-26T08:09:40;15.20;57.70
80218;DHT22;70450;37.974;23.708;2024-02-26T08:12:06;15.30;57.20
80218;DHT22;70450;37.974;23.708;2024-02-26T08:14:33;15.40;57.00
80218;DHT22;70450;37.974;23.708;2024-02-26T08:16:59;15.60;57.00
80218;DHT22;70450;37.974;23.708;2024-02-26T08:19:26;15.60;56.40
80218;DHT22;70450;37.974;23.708;2024-02-26T08:21:53;15.70;56.00
80218;DHT22;70450;37.974;23.708;2024-02-26T08:24:19;15.90;55.50
80218;DHT22;70450;37.974;23.708;2024-02-26T08:26:45;16.00;54.90
80218;DHT22;70450;37.974;23.708;2024-02-26T08:29:11;16.00;55.00
80218;DHT22;70450;37.974;23.708;2024-02-26T08:31:38;16.00;54.70
80218;DHT22;70450;37.974;23.708;2024-02-26T08:34:04;16.20;54.10
80218;DHT22;70450;37.974;23.708;2024-02-26T08:36:33;16.30;53.60
80218;DHT22;70450;37.974;23.708;2024-02-26T08:38:59;16.40;53.50
80218;DHT22;70450;37.974;23.708;2024-02-26T08:41:26;16.40;53.10
80218;DHT22;70450;37.974;23.708;2024-02-26T08:43:52;16.60;52.80
80218;DHT22;70450;37.974;23.708;2024-02-26T08:46:18;16.70;52.50
80218;DHT22;70450;37.974;23.708;2024-02-26T08:48:44;16.80;52.30
80218;DHT22;70450;37.974;23.708;2024-02-26T08:51:10;16.80;52.00
80218;DHT22;70450;37.974;23.708;2024-02-26T08:53:37;17.00;51.60
80218;DHT22;70450;37.974;23.708;2024-02-26T08:56:03;17.00;51.40
80218;DHT22;70450;37.974;23.708;2024-02-26T08:58:32;17.10;51.10
80218;DHT22;70450;37.974;23.708;2024-02-26T09:00:58;17.20;51.10
80218;DHT22;70450;37.974;23.708;2024-02-26T09:03:24;17.30;50.80
80218;DHT22;70450;37.974;23.708;2024-02-26T09:05:52;17.20;50.50
80218;DHT22;70450;37.974;23.708;2024-02-26T09:08:18;17.20;50.70
80218;DHT22;70450;37.974;23.708;2024-02-26T09:10:44;17.40;50.10
80218;DHT22;70450;37.974;23.708;2024-02-26T09:13:10;17.60;49.80
80218;DHT22;70450;37.974;23.708;2024-02-26T09:15:36;17.80;49.70
80218;DHT22;70450;37.974;23.708;2024-02-26T09:18:03;17.80;49.60
80218;DHT22;70450;37.974;23.708;2024-02-26T09:20:29;18.00;49.30
80218;DHT22;70450;37.974;23.708;2024-02-26T09:22:57;17.60;50.20
80218;DHT22;70450;37.974;23.708;2024-02-26T09:25:24;17.80;50.00
80218;DHT22;70450;37.974;23.708;2024-02-26T09:27:50;17.90;49.40
80218;DHT22;70450;37.974;23.708;2024-02-26T09:30:16;18.00;48.90
80218;DHT22;70450;37.974;23.708;2024-02-26T09:32:46;18.00;48.30
80218;DHT22;70450;37.974;23.708;2024-02-26T09:35:13;17.80;48.80
80218;DHT22;70450;37.974;23.708;2024-02-26T09:37:39;17.70;49.10
80218;DHT22;70450;37.974;23.708;2024-02-26T09:40:06;17.90;48.70
80218;DHT22;70450;37.974;23.708;2024-02-26T09:42:32;18.00;48.30
80218;DHT22;70450;37.974;23.708;2024-02-26T09:45:00;18.10;47.90
80218;DHT22;70450;37.974;23.708;2024-02-26T09:47:31;18.30;47.50
80218;DHT22;70450;37.974;23.708;2024-02-26T09:49:59;18.40;47.40
80218;DHT22;70450;37.974;23.708;2024-02-26T09:52:28;18.50;47.10
80218;DHT22;70450;37.974;23.708;2024-02-26T09:54:55;18.60;47.10
80218;DHT22;70450;37.974;23.708;2024-02-26T09:57:21;18.60;47.40
80218;DHT22;70450;37.974;23.708;2024-02-26T09:59:53;18.70;47.20
80218;DHT22;70450;37.974;23.708;2024-02-26T10:02:20;18.80;47.00
80218;DHT22;70450;37.974;23.708;2024-02-26T10:04:47;18.90;46.80
80218;DHT22;70450;37.974;23.708;2024-02-26T10:07:17;19.00;46.40
80218;DHT22;70450;37.974;23.708;2024-02-26T10:09:43;18.90;46.20
80218;DHT22;70450;37.974;23.708;2024-02-26T10:12:10;18.80;47.00
80218;DHT22;70450;37.974;23.708;2024-02-26T10:14:41;19.00;46.40
80218;DHT22;70450;37.974;23.708;2024-02-26T10:17:07;19.20;46.10
80218;DHT22;70450;37.974;23.708;2024-02-26T10:19:34;19.30;45.60
80218;DHT22;70450;37.974;23.708;2024-02-26T10:22:01;19.40;45.20
80218;DHT22;70450;37.974;23.708;2024-02-26T10:24:28;19.70;44.80
80218;DHT22;70450;37.974;23.708;2024-02-26T10:26:55;19.80;44.30
80218;DHT22;70450;37.974;23.708;2024-02-26T10:29:24;20.00;44.50
80218;DHT22;70450;37.974;23.708;2024-02-26T10:31:51;20.20;43.10
80218;DHT22;70450;37.974;23.708;2024-02-26T10:34:18;20.20;42.90
80218;DHT22;70450;37.974;23.708;2024-02-26T10:36:44;20.30;42.80
80218;DHT22;70450;37.974;23.708;2024-02-26T10:39:14;20.30;42.70
80218;DHT22;70450;37.974;23.708;2024-02-26T10:41:44;20.50;42.50
80218;DHT22;70450;37.974;23.708;2024-02-26T10:44:11;20.50;42.20
80218;DHT22;70450;37.974;23.708;2024-02-26T10:46:40;20.70;42.20
80218;DHT22;70450;37.974;23.708;2024-02-26T10:49:15;20.80;41.50
80218;DHT22;70450;37.974;23.708;2024-02-26T10:51:45;21.00;41.40
80218;DHT22;70450;37.974;23.708;2024-02-26T10:54:15;21.10;40.30
80218;DHT22;70450;37.974;23.708;2024-02-26T10:56:42;21.20;40.00
80218;DHT22;70450;37.974;23.708;2024-02-26T10:59:12;21.20;39.70
80218;DHT22;70450;37.974;23.708;2024-02-26T11:01:41;21.40;39.20
80218;DHT22;70450;37.974;23.708;2024-02-26T11:04:12;21.70;38.60
80218;DHT22;70450;37.974;23.708;2024-02-26T11:06:39;22.20;37.90
80218;DHT22;70450;37.974;23.708;2024-02-26T11:09:11;22.70;36.30
80218;DHT22;70450;37.974;23.708;2024-02-26T11:11:39;23.00;35.40
80218;DHT22;70450;37.974;23.708;2024-02-26T11:14:08;23.10;35.20
80218;DHT22;70450;37.974;23.708;2024-02-26T11:16:35;23.10;35.10
80218;DHT22;70450;37.974;23.708;2024-02-26T11:19:04;23.10;34.50
80218;DHT22;70450;37.974;23.708;2024-02-26T11:21:32;23.00;34.80
80218;DHT22;70450;37.974;23.708;2024-02-26T11:24:10;23.10;35.00
80218;DHT22;70450;37.974;23.708;2024-02-26T11:26:41;23.40;34.50
80218;DHT22;70450;37.974;23.708;2024-02-26T11:29:15;23.80;33.70
80218;DHT22;70450;37.974;23.708;2024-02-26T11:31:42;24.30;32.60
80218;DHT22;70450;37.974;23.708;2024-02-26T11:34:09;24.50;32.40
80218;DHT22;70450;37.974;23.708;2024-02-26T11:36:36;24.40;32.50
80218;DHT22;70450;37.974;23.708;2024-02-26T11:39:04;24.10;32.70
80218;DHT22;70450;37.974;23.708;2024-02-26T11:41:31;23.80;33.40
80218;DHT22;70450;37.974;23.708;2024-02-26T11:44:01;23.60;33.80
80218;DHT22;70450;37.974;23.708;2024-02-26T11:46:29;23.40;34.10
80218;DHT22;70450;37.974;23.708;2024-02-26T11:49:00;23.30;34.50
80218;DHT22;70450;37.974;23.708;2024-02-26T11:51:28;23.30;34.50
80218;DHT22;70450;37.974;23.708;2024-02-26T11:53:57;23.10;34.60
80218;DHT22;70450;37.974;23.708;2024-02-26T11:56:24;23.00;34.70
80218;DHT22;70450;37.974;23.708;2024-02-26T11:59:11;22.90;34.90
80218;DHT22;70450;37.974;23.708;2024-02-26T12:04:24;22.70;35.30
80218;DHT22;70450;37.974;23.708;2024-02-26T12:07:00;22.80;35.10
80218;DHT22;70450;37.974;23.708;2024-02-26T12:11:57;22.80;35.10
80218;DHT22;70450;37.974;23.708;2024-02-26T12:14:27;22.70;35.00
80218;DHT22;70450;37.974;23.708;2024-02-26T12:16:53;22.60;35.30
80218;DHT22;70450;37.974;23.708;2024-02-26T12:19:21;22.60;35.50
80218;DHT22;70450;37.974;23.708;2024-02-26T12:21:52;22.60;35.40
80218;DHT22;70450;37.974;23.708;2024-02-26T12:24:19;22.60;35.40
80218;DHT22;70450;37.974;23.708;2024-02-26T12:26:46;22.70;35.30
80218;DHT22;70450;37.974;23.708;2024-02-26T12:29:13;22.90;35.00
80218;DHT22;70450;37.974;23.708;2024-02-26T12:31:40;24.20;33.10
80218;DHT22;70450;37.974;23.708;2024-02-26T12:34:07;25.50;30.90
80218;DHT22;70450;37.974;23.708;2024-02-26T12:36:35;25.80;30.40
80218;DHT22;70450;37.974;23.708;2024-02-26T12:39:03;25.60;30.60
80218;DHT22;70450;37.974;23.708;2024-02-26T12:41:32;25.40;30.90
80218;DHT22;70450;37.974;23.708;2024-02-26T12:43:59;25.10;31.00
80218;DHT22;70450;37.974;23.708;2024-02-26T12:46:26;24.90;31.40
80218;DHT22;70450;37.974;23.708;2024-02-26T12:48:54;24.60;31.90
80218;DHT22;70450;37.974;23.708;2024-02-26T12:51:22;24.40;32.30
80218;DHT22;70450;37.974;23.708;2024-02-26T12:53:49;24.40;32.20
80218;DHT22;70450;37.974;23.708;2024-02-26T12:56:18;24.40;32.20
80218;DHT22;70450;37.974;23.708;2024-02-26T12:58:45;24.10;32.40
80218;DHT22;70450;37.974;23.708;2024-02-26T13:01:18;23.90;32.90
80218;DHT22;70450;37.974;23.708;2024-02-26T13:03:46;23.50;33.50
80218;DHT22;70450;37.974;23.708;2024-02-26T13:06:13;23.10;33.80
80218;DHT22;70450;37.974;23.708;2024-02-26T13:08:40;22.70;34.70
80218;DHT22;70450;37.974;23.708;2024-02-26T13:11:07;22.60;35.00
80218;DHT22;70450;37.974;23.708;2024-02-26T13:13:34;22.80;35.10
80218;DHT22;70450;37.974;23.708;2024-02-26T13:16:09;22.90;34.80
80218;DHT22;70450;37.974;23.708;2024-02-26T13:18:36;23.00;34.70
80218;DHT22;70450;37.974;23.708;2024-02-26T13:21:14;23.10;34.60
80218;DHT22;70450;37.974;23.708;2024-02-26T13:23:41;23.10;34.60
80218;DHT22;70450;37.974;23.708;2024-02-26T13:26:08;23.10;34.50
80218;DHT22;70450;37.974;23.708;2024-02-26T13:28:37;23.00;34.70
80218;DHT22;70450;37.974;23.708;2024-02-26T13:31:05;22.80;35.10
80218;DHT22;70450;37.974;23.708;2024-02-26T13:33:34;22.70;35.20
80218;DHT22;70450;37.974;23.708;2024-02-26T13:36:00;22.70;35.00
80218;DHT22;70450;37.974;23.708;2024-02-26T13:38:28;22.60;35.50
80218;DHT22;70450;37.974;23.708;2024-02-26T13:40:54;22.40;36.70
80218;DHT22;70450;37.974;23.708;2024-02-26T13:43:20;22.30;36.20
80218;DHT22;70450;37.974;23.708;2024-02-26T13:45:47;22.10;36.10
80218;DHT22;70450;37.974;23.708;2024-02-26T13:48:13;22.00;36.50
80218;DHT22;70450;37.974;23.708;2024-02-26T13:50:41;21.80;36.80
80218;DHT22;70450;37.974;23.708;2024-02-26T13:53:09;21.80;37.20
80218;DHT22;70450;37.974;23.708;2024-02-26T13:55:35;21.70;37.20
80218;DHT22;70450;37.974;23.708;2024-02-26T13:58:02;21.60;37.30
80218;DHT22;70450;37.974;23.708;2024-02-26T14:00:30;21.50;37.50
80218;DHT22;70450;37.974;23.708;2024-02-26T14:03:00;21.40;37.80
80218;DHT22;70450;37.974;23.708;2024-02-26T14:05:27;21.30;38.20
80218;DHT22;70450;37.974;23.708;2024-02-26T14:07:55;21.20;38.20
80218;DHT22;70450;37.974;23.708;2024-02-26T14:10:22;21.10;38.40
80218;DHT22;70450;37.974;23.708;2024-02-26T14:12:48;21.00;39.00
80218;DHT22;70450;37.974;23.708;2024-02-26T14:15:14;20.90;38.90
80218;DHT22;70450;37.974;23.708;2024-02-26T14:17:40;20.80;39.10
80218;DHT22;70450;37.974;23.708;2024-02-26T14:20:07;20.70;40.30
80218;DHT22;70450;37.974;23.708;2024-02-26T14:22:35;20.60;39.50
80218;DHT22;70450;37.974;23.708;2024-02-26T14:25:01;20.50;39.50
80218;DHT22;70450;37.974;23.708;2024-02-26T14:27:28;20.40;39.50
80218;DHT22;70450;37.974;23.708;2024-02-26T14:29:54;20.30;40.10
80218;DHT22;70450;37.974;23.708;2024-02-26T14:32:21;20.20;40.40
80218;DHT22;70450;37.974;23.708;2024-02-26T14:34:49;20.00;40.00
80218;DHT22;70450;37.974;23.708;2024-02-26T14:37:15;19.90;39.40
80218;DHT22;70450;37.974;23.708;2024-02-26T14:39:42;19.80;38.80
80218;DHT22;70450;37.974;23.708;2024-02-26T14:42:08;19.70;38.80
80218;DHT22;70450;37.974;23.708;2024-02-26T14:44:34;19.60;39.10
80218;DHT22;70450;37.974;23.708;2024-02-26T14:47:00;19.50;39.10
80218;DHT22;70450;37.974;23.708;2024-02-26T14:49:27;19.50;39.50
80218;DHT22;70450;37.974;23.708;2024-02-26T14:51:55;19.40;39.90
80218;DHT22;70450;37.974;23.708;2024-02-26T14:54:21;19.40;40.10
80218;DHT22;70450;37.974;23.708;2024-02-26T14:56:47;19.30;40.30
80218;DHT22;70450;37.974;23.708;2024-02-26T14:59:14;19.20;40.80
80218;DHT22;70450;37.974;23.708;2024-02-26T15:01:40;19.20;40.80
80218;DHT22;70450;37.974;23.708;2024-02-26T15:04:06;19.10;40.80
80218;DHT22;70450;37.974;23.708;2024-02-26T15:06:32;19.10;41.40
80218;DHT22;70450;37.974;23.708;2024-02-26T15:09:00;19.00;41.40
80218;DHT22;70450;37.974;23.708;2024-02-26T15:11:27;18.90;41.30
80218;DHT22;70450;37.974;23.708;2024-02-26T15:13:53;18.80;41.70
80218;DHT22;70450;37.974;23.708;2024-02-26T15:16:19;18.70;41.90
80218;DHT22;70450;37.974;23.708;2024-02-26T15:18:46;18.50;42.00